Time;durP1;ratioP1;P1;durP2;ratioP2;P2;SDS_P1;SDS_P2;PMS_P1;PMS_P2;Temp;Humidity;BMP_temperature;BMP_pressure;BME280_temperature;BME280_humidity;BME280_pressure;Samples;Min_cycle;Max_cycle;Signal;HPM_P1;HPM_P2
2022/10/18 00:01:38;;;;;;;11.63;6.88;;;13.80;99.90;;;;;;4982310;28;20054;-49
2022/10/18 00:04:04;;;;;;;15.60;8.32;;;13.80;99.90;;;;;;4981177;28;20069;-51
2022/10/18 00:06:30;;;;;;;9.63;7.03;;;13.70;99.90;;;;;;4982849;28;20116;-52
2022/10/18 00:08:55;;;;;;;10.60;6.68;;;13.70;99.90;;;;;;4971612;28;20050;-49
2022/10/18 00:11:21;;;;;;;10.32;8.57;;;13.70;99.90;;;;;;4973162;28;20065;-50
2022/10/18 00:13:46;;;;;;;10.13;6.45;;;13.70;99.90;;;;;;4980465;28;20469;-49
2022/10/18 00:16:17;;;;;;;7.32;6.53;;;13.60;99.90;;;;;;4987120;28;20089;-50
2022/10/18 00:18:44;;;;;;;13.30;8.50;;;13.70;99.90;;;;;;4983033;28;20049;-50
2022/10/18 00:21:13;;;;;;;9.38;7.90;;;13.60;99.90;;;;;;4980281;28;20037;-58
2022/10/18 00:23:39;;;;;;;10.40;9.05;;;13.60;99.90;;;;;;4984193;28;20030;-52
2022/10/18 00:26:10;;;;;;;25.65;9.57;;;13.60;99.90;;;;;;4978293;28;20182;-49
2022/10/18 00:28:37;;;;;;;10.02;8.70;;;13.60;99.90;;;;;;4982785;28;20058;-51
2022/10/18 00:31:18;;;;;;;11.43;8.98;;;13.60;99.90;;;;;;4984339;28;20109;-49
2022/10/18 00:33:46;;;;;;;11.10;9.35;;;13.60;99.90;;;;;;4982512;28;20026;-49
2022/10/18 00:36:12;;;;;;;13.43;9.18;;;13.60;99.90;;;;;;4974747;28;20378;-49
2022/10/18 00:38:38;;;;;;;12.23;9.30;;;13.60;99.90;;;;;;4998496;28;20093;-52
2022/10/18 00:41:06;;;;;;;12.68;8.68;;;13.60;99.90;;;;;;4972464;28;20038;-49
2022/10/18 00:43:48;;;;;;;16.20;11.18;;;13.60;99.90;;;;;;4975274;28;20035;-49
2022/10/18 00:46:14;;;;;;;13.43;9.60;;;13.60;99.90;;;;;;4987693;28;20033;-49
2022/10/18 00:48:39;;;;;;;18.02;10.88;;;13.60;99.90;;;;;;4974490;28;20027;-51
2022/10/18 00:51:05;;;;;;;17.08;10.52;;;13.70;99.90;;;;;;5000999;28;20084;-52
2022/10/18 00:53:31;;;;;;;18.05;11.55;;;13.60;99.90;;;;;;4978393;28;20031;-49
2022/10/18 00:55:56;;;;;;;15.23;10.43;;;13.60;99.90;;;;;;4983593;28;20164;-49
2022/10/18 00:58:22;;;;;;;13.18;10.02;;;13.60;99.90;;;;;;4983738;28;20030;-49
2022/10/18 01:00:48;;;;;;;9.25;8.15;;;13.60;99.90;;;;;;4969242;28;20633;-53
2022/10/18 01:03:13;;;;;;;13.63;9.38;;;13.60;99.90;;;;;;4975833;28;20489;-54
2022/10/18 01:05:43;;;;;;;11.43;9.48;;;13.60;99.90;;;;;;4977916;28;20031;-50
2022/10/18 01:08:22;;;;;;;20.67;11.88;;;13.60;99.90;;;;;;4984695;28;20121;-49
2022/10/18 01:11:23;;;;;;;16.63;11.23;;;13.60;99.90;;;;;;4977509;28;20026;-50
2022/10/18 01:14:30;;;;;;;14.25;10.90;;;13.60;99.90;;;;;;4972418;28;20424;-49
2022/10/18 01:17:02;;;;;;;16.60;10.90;;;13.60;99.90;;;;;;4996197;28;20049;-51
2022/10/18 01:19:58;;;;;;;16.15;10.25;;;13.60;99.90;;;;;;4970123;28;20524;-53
2022/10/18 01:22:30;;;;;;;12.47;9.53;;;13.60;99.90;;;;;;4967148;28;20090;-50
2022/10/18 01:25:15;;;;;;;11.98;9.82;;;13.50;99.90;;;;;;4974930;28;20484;-49
2022/10/18 01:27:54;;;;;;;12.85;10.82;;;13.50;99.90;;;;;;4982098;28;20485;-51
2022/10/18 01:30:38;;;;;;;14.48;11.55;;;13.50;99.90;;;;;;4996406;23;20364;-51
2022/10/18 01:33:28;;;;;;;13.93;9.93;;;13.50;99.90;;;;;;4996490;28;20030;-52
2022/10/18 01:36:19;;;;;;;16.08;10.38;;;13.50;99.90;;;;;;5000816;28;20073;-50
2022/10/18 01:38:49;;;;;;;16.23;11.60;;;13.50;99.90;;;;;;5003379;28;20029;-50
2022/10/18 01:41:17;;;;;;;14.35;11.23;;;13.50;99.90;;;;;;4972608;28;20039;-53
2022/10/18 01:43:46;;;;;;;14.40;10.80;;;13.50;99.90;;;;;;4983269;28;20461;-55
2022/10/18 01:46:17;;;;;;;13.68;9.82;;;13.50;99.90;;;;;;4978437;28;20041;-51
2022/10/18 01:48:43;;;;;;;14.55;10.85;;;13.50;99.90;;;;;;4984038;28;20460;-53
2022/10/18 01:51:09;;;;;;;22.10;12.00;;;13.40;99.90;;;;;;4980508;28;20031;-55
2022/10/18 01:53:35;;;;;;;15.52;11.15;;;13.40;99.90;;;;;;4979064;28;20038;-51
2022/10/18 01:56:14;;;;;;;15.50;11.18;;;13.40;99.90;;;;;;4977232;28;20270;-51
2022/10/18 01:59:06;;;;;;;18.33;10.90;;;13.40;99.90;;;;;;4973364;28;20030;-53
2022/10/18 02:01:49;;;;;;;18.83;12.43;;;13.40;99.90;;;;;;4965470;28;20394;-52
2022/10/18 02:04:25;;;;;;;19.00;12.18;;;13.40;99.90;;;;;;4983175;28;20049;-53
2022/10/18 02:06:56;;;;;;;17.88;10.95;;;13.40;99.90;;;;;;4983535;28;20442;-52
2022/10/18 02:09:38;;;;;;;11.82;9.98;;;13.30;99.90;;;;;;4982380;28;20401;-52
2022/10/18 02:12:06;;;;;;;14.10;10.45;;;13.30;99.90;;;;;;4983859;28;20034;-55
2022/10/18 02:14:33;;;;;;;13.07;10.73;;;13.30;99.90;;;;;;4983170;28;20081;-55
2022/10/18 02:17:04;;;;;;;15.15;11.18;;;13.30;99.90;;;;;;4980671;28;20022;-52
2022/10/18 02:19:53;;;;;;;14.13;11.15;;;13.30;99.90;;;;;;4977538;28;20022;-57
2022/10/18 02:22:20;;;;;;;16.27;11.32;;;13.30;99.90;;;;;;4980910;28;20107;-51
2022/10/18 02:24:50;;;;;;;17.85;12.55;;;13.30;99.90;;;;;;4980991;28;20046;-52
2022/10/18 02:27:17;;;;;;;22.20;12.45;;;13.30;99.90;;;;;;4977647;28;20018;-53
2022/10/18 02:29:43;;;;;;;16.70;11.52;;;13.30;99.90;;;;;;4980747;28;20031;-53
2022/10/18 02:32:20;;;;;;;17.73;12.07;;;13.30;99.90;;;;;;4980979;28;20031;-51
2022/10/18 02:34:59;;;;;;;19.90;12.80;;;13.30;99.90;;;;;;4979956;28;20046;-51
2022/10/18 02:37:33;;;;;;;15.23;11.48;;;13.40;99.90;;;;;;4970937;28;20022;-51
2022/10/18 02:40:00;;;;;;;15.95;11.52;;;13.30;99.90;;;;;;4970929;28;20532;-54
2022/10/18 02:42:36;;;;;;;15.75;12.02;;;13.30;99.90;;;;;;4977127;28;20088;-51
2022/10/18 02:45:03;;;;;;;15.32;10.80;;;13.30;99.90;;;;;;4982449;28;20504;-52
2022/10/18 02:47:29;;;;;;;20.92;12.05;;;13.30;99.90;;;;;;4983618;28;20038;-51
2022/10/18 02:49:54;;;;;;;17.77;12.98;;;13.30;99.90;;;;;;4977287;28;20037;-54
2022/10/18 02:52:20;;;;;;;23.10;15.00;;;13.30;99.90;;;;;;4982537;28;20031;-53
2022/10/18 02:54:45;;;;;;;19.52;12.50;;;13.30;99.90;;;;;;4974998;28;20041;-52
2022/10/18 02:57:11;;;;;;;18.33;14.35;;;13.30;99.90;;;;;;4982913;28;20123;-54
2022/10/18 02:59:36;;;;;;;16.17;12.45;;;13.30;99.90;;;;;;4982312;28;20145;-51
2022/10/18 03:02:02;;;;;;;18.35;13.00;;;13.30;99.90;;;;;;4977139;28;20433;-52
2022/10/18 03:04:28;;;;;;;22.77;12.57;;;13.20;99.90;;;;;;4975141;28;20464;-52
2022/10/18 03:06:53;;;;;;;15.65;12.57;;;13.20;99.90;;;;;;4981559;28;20027;-54
2022/10/18 03:09:19;;;;;;;16.48;13.15;;;13.20;99.90;;;;;;4980226;28;20022;-51
2022/10/18 03:11:44;;;;;;;25.00;14.80;;;13.20;99.90;;;;;;4978937;28;20034;-53
2022/10/18 03:14:10;;;;;;;19.58;13.45;;;13.20;99.90;;;;;;4984093;28;20031;-51
2022/10/18 03:16:35;;;;;;;17.33;12.18;;;13.20;99.90;;;;;;4982391;28;20041;-52
2022/10/18 03:19:01;;;;;;;17.70;12.05;;;13.10;99.90;;;;;;4981828;28;20057;-51
2022/10/18 03:21:26;;;;;;;21.25;12.80;;;13.20;99.90;;;;;;4982995;28;20034;-51
2022/10/18 03:23:52;;;;;;;17.90;11.82;;;13.20;99.90;;;;;;4980473;28;20092;-52
2022/10/18 03:26:17;;;;;;;15.65;11.73;;;13.20;99.90;;;;;;4981970;28;20030;-55
2022/10/18 03:28:43;;;;;;;15.63;10.93;;;13.20;99.90;;;;;;4978355;28;20031;-51
2022/10/18 03:31:09;;;;;;;17.45;12.55;;;13.20;99.90;;;;;;4970245;28;137490;-51
2022/10/18 03:33:34;;;;;;;15.00;11.90;;;13.10;99.90;;;;;;4987277;28;20030;-51
2022/10/18 03:36:00;;;;;;;17.30;11.98;;;13.10;99.90;;;;;;4983022;28;20026;-55
2022/10/18 03:38:26;;;;;;;18.20;13.10;;;13.10;99.90;;;;;;4984517;28;20026;-50
2022/10/18 03:40:51;;;;;;;18.63;14.00;;;13.10;99.90;;;;;;4983965;28;20073;-54
2022/10/18 03:43:17;;;;;;;20.15;13.30;;;13.10;99.90;;;;;;4980724;28;20057;-52
2022/10/18 03:45:42;;;;;;;21.35;14.70;;;13.10;99.90;;;;;;4985652;28;20481;-53
2022/10/18 03:48:08;;;;;;;26.08;16.92;;;13.10;99.90;;;;;;4979523;28;20039;-51
2022/10/18 03:50:33;;;;;;;25.00;17.38;;;13.20;99.90;;;;;;4986836;28;20461;-53
2022/10/18 03:52:59;;;;;;;29.73;17.63;;;13.20;99.90;;;;;;4983080;28;20068;-51
2022/10/18 03:55:24;;;;;;;24.80;15.27;;;13.20;99.90;;;;;;4983112;28;20029;-53
2022/10/18 03:57:50;;;;;;;21.45;13.65;;;13.20;99.90;;;;;;4983499;28;20027;-51
2022/10/18 04:00:16;;;;;;;19.92;14.00;;;13.20;99.90;;;;;;4978407;28;20038;-51
2022/10/18 04:02:41;;;;;;;25.35;16.50;;;13.20;99.90;;;;;;4981563;28;20069;-50
2022/10/18 04:05:08;;;;;;;28.42;18.67;;;13.20;99.90;;;;;;4980200;28;20089;-54
2022/10/18 04:07:35;;;;;;;28.38;17.27;;;13.20;99.90;;;;;;4983920;28;20018;-54
2022/10/18 04:10:00;;;;;;;29.45;17.92;;;13.20;99.90;;;;;;4980123;28;20038;-51
2022/10/18 04:12:26;;;;;;;27.20;17.40;;;13.20;99.90;;;;;;4987562;28;20084;-50
2022/10/18 04:14:51;;;;;;;23.70;16.40;;;13.20;99.90;;;;;;4982320;28;20031;-54
2022/10/18 04:17:17;;;;;;;24.67;15.30;;;13.20;99.90;;;;;;4973495;28;20030;-51
2022/10/18 04:19:42;;;;;;;28.70;17.13;;;13.20;99.90;;;;;;4983009;28;20148;-51
2022/10/18 04:22:10;;;;;;;27.10;18.20;;;13.20;99.90;;;;;;4978273;28;20977;-53
2022/10/18 04:24:36;;;;;;;26.83;17.85;;;13.20;99.90;;;;;;4974031;28;20037;-51
2022/10/18 04:27:02;;;;;;;21.63;15.30;;;13.20;99.90;;;;;;4982587;28;20034;-52
2022/10/18 04:29:28;;;;;;;22.45;15.35;;;13.20;99.90;;;;;;4978765;28;20034;-51
2022/10/18 04:31:54;;;;;;;22.77;14.68;;;13.20;99.90;;;;;;4982474;28;20031;-54
2022/10/18 04:34:19;;;;;;;30.63;19.38;;;13.10;99.90;;;;;;4979604;28;20023;-50
2022/10/18 04:36:45;;;;;;;30.67;17.73;;;13.10;99.90;;;;;;4985863;28;20054;-51
2022/10/18 04:39:10;;;;;;;29.23;18.20;;;13.10;99.90;;;;;;4974373;28;20033;-55
2022/10/18 04:41:36;;;;;;;31.45;18.02;;;13.10;99.90;;;;;;4972345;28;20481;-56
2022/10/18 04:44:02;;;;;;;35.83;20.23;;;13.20;99.90;;;;;;4983896;28;20049;-50
2022/10/18 04:46:27;;;;;;;26.30;17.30;;;13.10;99.90;;;;;;4977004;28;20031;-50
2022/10/18 04:48:53;;;;;;;26.42;17.30;;;13.10;99.90;;;;;;4981873;28;20389;-51
2022/10/18 04:51:18;;;;;;;29.52;17.13;;;13.10;99.90;;;;;;4979159;28;20053;-54
2022/10/18 04:53:44;;;;;;;25.63;18.20;;;13.10;99.90;;;;;;4979621;28;20495;-51
2022/10/18 04:56:09;;;;;;;30.70;18.27;;;13.10;99.90;;;;;;4979447;28;20055;-55
2022/10/18 04:58:35;;;;;;;26.05;17.88;;;13.10;99.90;;;;;;4965618;28;20022;-53
2022/10/18 05:01:04;;;;;;;26.67;16.73;;;13.20;99.90;;;;;;4982605;28;20680;-54
2022/10/18 05:03:30;;;;;;;28.33;18.10;;;13.20;99.90;;;;;;4971173;28;20046;-50
2022/10/18 05:05:55;;;;;;;36.70;19.58;;;13.20;99.90;;;;;;4975185;28;20536;-52
2022/10/18 05:08:21;;;;;;;29.08;16.10;;;13.10;99.90;;;;;;4981040;28;20150;-55
2022/10/18 05:10:46;;;;;;;34.55;19.40;;;13.20;99.90;;;;;;4981468;28;20030;-56
2022/10/18 05:13:12;;;;;;;28.77;18.17;;;13.20;99.90;;;;;;4978524;28;20035;-50
2022/10/18 05:15:37;;;;;;;29.83;17.70;;;13.20;99.90;;;;;;4973088;28;20030;-52
2022/10/18 05:18:03;;;;;;;33.95;19.75;;;13.20;99.90;;;;;;4976406;28;20496;-52
2022/10/18 05:20:28;;;;;;;26.35;17.88;;;13.20;99.90;;;;;;4982237;28;20545;-51
2022/10/18 05:22:54;;;;;;;28.67;17.30;;;13.20;99.90;;;;;;4978824;28;20385;-50
2022/10/18 05:25:19;;;;;;;29.50;18.55;;;13.20;99.90;;;;;;4975779;28;20037;-53
2022/10/18 05:27:45;;;;;;;31.20;17.70;;;13.20;99.90;;;;;;4982595;28;20038;-51
2022/10/18 05:30:10;;;;;;;28.33;18.10;;;13.20;99.90;;;;;;4980675;28;20157;-54
2022/10/18 05:32:36;;;;;;;30.00;19.92;;;13.20;99.90;;;;;;4981586;28;20019;-51
2022/10/18 05:35:02;;;;;;;30.13;19.80;;;13.20;99.90;;;;;;4975876;28;20035;-53
2022/10/18 05:37:27;;;;;;;30.35;17.45;;;13.20;99.90;;;;;;4987418;28;20030;-55
2022/10/18 05:39:53;;;;;;;33.70;17.50;;;13.10;99.90;;;;;;4984154;28;20393;-50
2022/10/18 05:42:18;;;;;;;26.63;16.73;;;13.10;99.90;;;;;;4984402;28;20355;-51
2022/10/18 05:44:44;;;;;;;34.33;18.55;;;13.10;99.90;;;;;;4986089;28;20383;-55
2022/10/18 05:47:09;;;;;;;29.98;16.58;;;13.10;99.90;;;;;;4984577;28;20161;-51
2022/10/18 05:49:35;;;;;;;28.60;17.25;;;13.20;99.90;;;;;;4983134;28;20547;-50
2022/10/18 05:52:01;;;;;;;27.70;16.65;;;13.10;99.90;;;;;;4982581;28;20534;-51
2022/10/18 05:54:26;;;;;;;29.92;16.65;;;13.10;99.90;;;;;;4987974;28;20033;-54
2022/10/18 05:56:52;;;;;;;26.65;15.50;;;13.10;99.90;;;;;;4982569;28;20105;-51
2022/10/18 05:59:17;;;;;;;28.90;16.50;;;13.10;99.90;;;;;;4989463;28;20034;-52
2022/10/18 06:01:43;;;;;;;23.95;14.82;;;13.10;99.90;;;;;;4984107;28;20069;-51
2022/10/18 06:04:09;;;;;;;24.40;16.15;;;13.10;99.90;;;;;;4984196;28;20408;-55
2022/10/18 06:06:36;;;;;;;25.05;14.27;;;13.00;99.90;;;;;;4989280;28;20022;-51
2022/10/18 06:09:02;;;;;;;29.20;16.60;;;13.10;99.90;;;;;;4982871;28;20062;-53
2022/10/18 06:11:29;;;;;;;26.63;16.20;;;13.10;99.90;;;;;;4978980;28;20030;-56
2022/10/18 06:13:56;;;;;;;28.23;16.90;;;13.10;99.90;;;;;;4976998;28;20023;-54
2022/10/18 06:16:22;;;;;;;29.65;15.48;;;13.10;99.90;;;;;;4984670;28;20477;-55
2022/10/18 06:18:50;;;;;;;26.65;15.45;;;13.00;99.90;;;;;;4983826;28;20042;-50
2022/10/18 06:21:16;;;;;;;31.42;17.73;;;13.10;99.90;;;;;;4986291;28;20105;-54
2022/10/18 06:23:42;;;;;;;32.25;15.43;;;13.10;99.90;;;;;;4984454;28;20073;-51
2022/10/18 06:26:10;;;;;;;25.05;15.18;;;13.10;99.90;;;;;;4982093;28;20045;-51
2022/10/18 06:28:36;;;;;;;26.38;15.63;;;13.00;99.90;;;;;;4984581;28;20029;-54
2022/10/18 06:31:03;;;;;;;23.08;13.68;;;13.00;99.90;;;;;;4982587;28;20039;-51
2022/10/18 06:33:30;;;;;;;24.23;14.43;;;13.00;99.90;;;;;;4983946;28;20026;-52
2022/10/18 06:36:01;;;;;;;27.63;15.32;;;13.00;99.90;;;;;;4983580;28;20548;-50
2022/10/18 06:38:28;;;;;;;26.48;14.75;;;13.00;99.90;;;;;;4984481;28;20031;-53
2022/10/18 06:40:55;;;;;;;24.38;15.10;;;12.90;99.90;;;;;;4982578;28;20057;-51
2022/10/18 06:43:21;;;;;;;27.58;14.82;;;12.90;99.90;;;;;;4982686;28;20023;-51
2022/10/18 06:45:47;;;;;;;24.88;15.50;;;12.90;99.90;;;;;;4983974;28;20420;-51
2022/10/18 06:48:12;;;;;;;30.13;15.93;;;12.90;99.90;;;;;;4981472;28;20072;-52
2022/10/18 06:50:38;;;;;;;23.10;14.32;;;12.90;99.90;;;;;;4982737;28;20073;-52
2022/10/18 06:53:05;;;;;;;23.08;14.35;;;12.90;99.90;;;;;;4983866;28;20303;-50
2022/10/18 06:55:30;;;;;;;26.15;16.13;;;12.90;99.90;;;;;;4981208;28;20018;-51
2022/10/18 06:57:56;;;;;;;23.30;13.52;;;12.90;99.90;;;;;;4983037;28;20442;-55
2022/10/18 07:00:22;;;;;;;33.85;17.75;;;12.90;99.90;;;;;;5012243;28;20113;-50
2022/10/18 07:02:47;;;;;;;41.65;28.73;;;12.90;99.90;;;;;;4980774;28;20031;-50
2022/10/18 07:05:13;;;;;;;49.95;34.72;;;13.00;99.90;;;;;;4979026;28;20057;-50
2022/10/18 07:07:38;;;;;;;36.30;23.27;;;13.00;99.90;;;;;;4982870;28;20130;-53
2022/10/18 07:10:04;;;;;;;26.63;15.82;;;13.00;99.90;;;;;;4977836;28;20039;-50
2022/10/18 07:12:31;;;;;;;28.10;15.55;;;13.00;99.90;;;;;;4983964;28;20535;-50
2022/10/18 07:14:56;;;;;;;26.50;14.93;;;13.00;99.90;;;;;;4983076;28;20432;-57
2022/10/18 07:17:22;;;;;;;29.13;15.38;;;13.00;99.90;;;;;;4980484;28;20023;-49
2022/10/18 07:19:48;;;;;;;23.40;14.07;;;13.10;99.90;;;;;;4987620;28;20034;-51
2022/10/18 07:22:13;;;;;;;20.70;13.63;;;13.10;99.90;;;;;;4979608;28;20035;-50
2022/10/18 07:24:39;;;;;;;24.85;14.65;;;13.10;99.90;;;;;;4975276;28;20528;-54
2022/10/18 07:27:05;;;;;;;23.40;13.88;;;13.10;99.90;;;;;;4975186;28;20057;-52
2022/10/18 07:32:04;;;;;;;19.45;13.25;;;13.10;99.90;;;;;;4997258;28;20057;-48
2022/10/18 07:34:29;;;;;;;21.55;13.48;;;13.20;99.90;;;;;;5001294;28;20014;-52
2022/10/18 07:36:55;;;;;;;23.60;14.88;;;13.20;99.90;;;;;;4998933;28;20485;-49
2022/10/18 07:39:21;;;;;;;27.58;13.80;;;13.20;99.90;;;;;;4993167;28;20132;-49
2022/10/18 07:41:47;;;;;;;21.33;13.55;;;13.20;99.90;;;;;;4998991;28;20385;-50
2022/10/18 07:44:12;;;;;;;21.95;13.85;;;13.20;99.90;;;;;;5003529;28;20026;-49
2022/10/18 07:46:38;;;;;;;24.45;13.30;;;13.20;99.90;;;;;;4998925;28;20030;-51
2022/10/18 07:49:03;;;;;;;18.83;13.07;;;13.30;99.90;;;;;;5005851;28;20408;-50
2022/10/18 07:51:31;;;;;;;23.20;13.60;;;13.20;99.90;;;;;;4998599;28;20094;-50
2022/10/18 07:54:00;;;;;;;23.27;13.18;;;13.20;99.90;;;;;;5002900;28;20733;-48
2022/10/18 07:56:26;;;;;;;20.00;12.00;;;13.30;99.90;;;;;;5002502;28;20342;-49
2022/10/18 07:58:54;;;;;;;21.83;12.65;;;13.30;99.90;;;;;;4998459;28;20034;-49
2022/10/18 08:01:21;;;;;;;22.45;13.07;;;13.30;99.90;;;;;;5001386;28;20076;-48
2022/10/18 08:03:47;;;;;;;22.67;13.18;;;13.30;99.90;;;;;;5013390;28;20058;-48
2022/10/18 08:06:15;;;;;;;25.20;13.20;;;13.30;99.90;;;;;;5000280;28;20461;-48
2022/10/18 08:08:41;;;;;;;21.25;12.85;;;13.30;99.90;;;;;;4998227;28;20539;-50
2022/10/18 08:11:24;;;;;;;21.13;12.52;;;13.30;99.90;;;;;;5005817;28;20057;-49
2022/10/18 08:13:50;;;;;;;21.40;11.82;;;13.30;99.90;;;;;;4994057;28;20025;-48
2022/10/18 08:16:22;;;;;;;25.35;13.05;;;13.40;99.90;;;;;;5002392;28;20030;-50
2022/10/18 08:18:48;;;;;;;27.48;14.98;;;13.40;99.90;;;;;;5001593;28;20129;-48
2022/10/18 08:21:15;;;;;;;19.05;12.23;;;13.40;99.90;;;;;;5001426;28;20441;-48
2022/10/18 08:23:41;;;;;;;18.85;12.90;;;13.40;99.90;;;;;;5001884;28;20101;-49
2022/10/18 08:26:11;;;;;;;16.67;12.43;;;13.40;99.90;;;;;;4998249;28;20113;-48
2022/10/18 08:28:37;;;;;;;23.15;12.52;;;13.40;99.90;;;;;;5001749;28;20484;-50
2022/10/18 08:31:05;;;;;;;19.48;13.20;;;13.40;99.90;;;;;;4999734;28;20117;-48
2022/10/18 08:33:31;;;;;;;23.75;12.52;;;13.50;99.90;;;;;;5001406;28;20033;-49
2022/10/18 08:35:58;;;;;;;26.27;14.13;;;13.50;99.90;;;;;;5001293;28;20025;-48
2022/10/18 08:38:24;;;;;;;21.80;13.25;;;13.50;99.90;;;;;;4996357;28;20057;-50
2022/10/18 08:40:50;;;;;;;17.25;14.25;;;13.50;99.90;;;;;;4995229;28;20057;-52
2022/10/18 08:43:23;;;;;;;18.67;12.77;;;13.50;99.90;;;;;;4999622;28;20025;-52
2022/10/18 08:45:52;;;;;;;21.08;11.82;;;13.60;99.90;;;;;;4997257;28;20054;-48
2022/10/18 08:48:41;;;;;;;23.45;13.25;;;13.60;99.90;;;;;;4998676;28;20572;-50
2022/10/18 08:51:20;;;;;;;21.77;12.48;;;13.60;99.90;;;;;;4999208;28;20026;-48
2022/10/18 08:53:58;;;;;;;23.02;13.95;;;13.60;99.90;;;;;;5005340;28;20026;-49
2022/10/18 08:56:24;;;;;;;24.48;11.80;;;13.60;99.90;;;;;;4996868;28;20026;-48
2022/10/18 08:58:50;;;;;;;27.70;12.63;;;13.60;99.90;;;;;;4998294;28;20037;-48
2022/10/18 09:01:33;;;;;;;37.10;19.55;;;13.70;99.90;;;;;;4997678;28;20026;-53
2022/10/18 09:04:22;;;;;;;26.90;15.05;;;13.70;99.90;;;;;;4999225;28;20042;-47
2022/10/18 09:07:07;;;;;;;30.73;17.25;;;13.70;99.90;;;;;;4994397;28;20066;-51
2022/10/18 09:09:45;;;;;;;27.23;13.45;;;13.70;99.90;;;;;;4992248;28;20519;-47
2022/10/18 09:12:23;;;;;;;20.95;12.30;;;13.80;99.90;;;;;;5004672;28;20468;-50
2022/10/18 09:14:48;;;;;;;17.67;12.20;;;13.80;99.90;;;;;;5001468;28;20026;-50
2022/10/18 09:17:53;;;;;;;24.17;12.75;;;13.80;99.90;;;;;;5002636;28;20022;-47
2022/10/18 09:20:31;;;;;;;20.48;11.90;;;13.80;99.90;;;;;;4984958;28;20311;-47
2022/10/18 09:23:19;;;;;;;22.27;12.30;;;13.80;99.90;;;;;;4999972;28;20034;-51
2022/10/18 09:25:45;;;;;;;19.77;11.45;;;13.90;99.90;;;;;;5001910;28;20014;-51
2022/10/18 09:28:38;;;;;;;21.33;12.63;;;13.90;99.90;;;;;;5002711;28;20405;-49
2022/10/18 09:31:27;;;;;;;24.80;14.32;;;13.90;99.90;;;;;;5000059;28;20062;-48
2022/10/18 09:34:00;;;;;;;22.95;12.40;;;14.00;99.90;;;;;;5004294;28;20025;-53
2022/10/18 09:36:34;;;;;;;18.17;11.63;;;14.00;99.90;;;;;;5005452;28;20014;-50
2022/10/18 09:39:08;;;;;;;21.98;10.93;;;14.10;99.90;;;;;;5001705;28;20022;-47
2022/10/18 09:41:53;;;;;;;24.40;11.80;;;14.20;99.90;;;;;;5000511;28;20030;-50
2022/10/18 09:44:23;;;;;;;17.83;10.40;;;14.40;99.90;;;;;;4995446;28;20038;-48
2022/10/18 09:46:56;;;;;;;18.95;10.45;;;14.50;99.90;;;;;;5001461;28;20026;-49
2022/10/18 09:49:39;;;;;;;20.55;8.70;;;14.60;99.90;;;;;;5005092;28;20038;-53
2022/10/18 09:52:12;;;;;;;15.50;9.25;;;14.70;99.90;;;;;;5003059;28;20019;-48
2022/10/18 09:54:43;;;;;;;18.50;8.52;;;14.90;99.90;;;;;;5004292;28;20022;-49
2022/10/18 09:57:15;;;;;;;16.67;9.52;;;14.90;99.90;;;;;;5003545;28;20109;-48
2022/10/18 09:59:43;;;;;;;17.13;8.68;;;14.80;99.90;;;;;;4985964;28;20054;-51
2022/10/18 10:02:22;;;;;;;15.55;9.50;;;14.80;99.90;;;;;;5000378;28;20041;-48
2022/10/18 10:04:49;;;;;;;17.13;9.13;;;14.70;99.90;;;;;;5003392;28;20030;-50
2022/10/18 10:07:22;;;;;;;17.38;8.73;;;14.70;99.90;;;;;;5004014;28;20022;-48
2022/10/18 10:10:02;;;;;;;13.35;8.48;;;14.70;99.90;;;;;;5002919;28;20091;-48
2022/10/18 10:12:37;;;;;;;18.15;7.97;;;14.70;99.90;;;;;;4995981;28;20044;-50
2022/10/18 10:15:29;;;;;;;14.23;8.05;;;14.70;99.90;;;;;;4992851;28;20034;-50
2022/10/18 10:18:05;;;;;;;15.60;8.38;;;14.70;99.90;;;;;;5001381;28;20026;-48
2022/10/18 10:20:43;;;;;;;;;;;14.60;99.90;;;;;;5005775;28;20400;-50
2022/10/18 10:23:18;;;;;;;17.17;8.55;;;14.60;99.90;;;;;;5002527;28;20336;-51
2022/10/18 10:25:51;;;;;;;14.63;8.45;;;14.50;99.90;;;;;;5002565;28;20100;-48
2022/10/18 10:28:20;;;;;;;13.07;8.50;;;14.40;99.90;;;;;;4992140;28;20025;-52
2022/10/18 10:30:46;;;;;;;16.33;8.23;;;14.40;99.90;;;;;;5002256;28;20037;-49
2022/10/18 10:33:56;;;;;;;18.88;8.15;;;14.40;99.90;;;;;;5002821;28;20101;-48
2022/10/18 10:36:22;;;;;;;16.80;8.65;;;14.40;99.90;;;;;;5001559;28;20018;-50
2022/10/18 10:39:02;;;;;;;15.68;8.40;;;14.30;99.90;;;;;;5002793;28;20459;-49
2022/10/18 10:41:28;;;;;;;13.70;8.98;;;14.30;99.90;;;;;;4997415;28;20022;-49
2022/10/18 10:43:54;;;;;;;16.40;8.27;;;14.40;99.90;;;;;;5000143;28;20041;-50
2022/10/18 10:46:22;;;;;;;18.08;8.82;;;14.40;99.90;;;;;;4999889;28;20125;-50
2022/10/18 10:48:56;;;;;;;13.25;8.88;;;14.40;99.90;;;;;;5000180;28;20496;-49
2022/10/18 10:51:37;;;;;;;17.35;8.52;;;14.30;99.90;;;;;;4996102;28;20018;-49
2022/10/18 10:54:15;;;;;;;20.85;8.55;;;14.30;99.90;;;;;;5000439;28;20040;-49
2022/10/18 10:57:01;;;;;;;12.88;7.82;;;14.40;99.90;;;;;;5000346;28;20019;-53
2022/10/18 10:59:31;;;;;;;16.02;8.57;;;14.50;99.90;;;;;;4997104;28;20022;-51
2022/10/18 11:02:18;;;;;;;15.35;8.85;;;14.60;99.90;;;;;;5000310;28;20030;-51
2022/10/18 11:04:47;;;;;;;13.63;7.07;;;14.80;99.90;;;;;;5000252;28;20021;-51
2022/10/18 11:07:26;;;;;;;16.55;9.45;;;14.80;99.90;;;;;;5000254;28;20064;-49
2022/10/18 11:09:55;;;;;;;16.65;8.07;;;15.00;99.90;;;;;;5000205;28;20018;-51
2022/10/18 11:13:00;;;;;;;19.85;7.78;;;15.10;99.90;;;;;;4986399;28;20026;-48
2022/10/18 11:15:34;;;;;;;15.00;8.85;;;15.10;99.90;;;;;;4974344;28;20088;-50
2022/10/18 11:18:13;;;;;;;12.85;6.53;;;15.10;99.90;;;;;;4999650;28;20034;-53
2022/10/18 11:21:06;;;;;;;13.48;6.35;;;15.10;99.90;;;;;;5002239;28;20433;-48
2022/10/18 11:23:35;;;;;;;15.45;6.50;;;15.00;99.90;;;;;;4994396;28;20118;-51
2022/10/18 11:26:10;;;;;;;13.27;5.72;;;15.00;99.90;;;;;;5000628;28;20046;-49
2022/10/18 11:28:35;;;;;;;10.23;5.13;;;15.00;99.90;;;;;;5002739;28;20026;-49
2022/10/18 11:31:16;;;;;;;16.55;6.60;;;15.00;99.90;;;;;;5000835;28;20562;-47
2022/10/18 11:33:54;;;;;;;14.82;5.97;;;15.10;99.90;;;;;;5002027;28;20018;-48
2022/10/18 11:36:50;;;;;;;10.25;5.22;;;15.10;99.90;;;;;;5000541;28;20014;-50
2022/10/18 11:39:28;;;;;;;11.20;5.07;;;15.20;99.90;;;;;;4994531;28;20503;-49
2022/10/18 11:41:57;;;;;;;17.20;4.22;;;15.30;99.90;;;;;;4999844;28;20268;-52
2022/10/18 11:44:35;;;;;;;10.75;4.47;;;15.20;99.90;;;;;;5003817;28;20054;-49
2022/10/18 11:47:19;;;;;;;12.10;4.00;;;15.10;99.90;;;;;;4999776;28;20445;-49
2022/10/18 11:49:50;;;;;;;10.38;4.18;;;15.10;99.90;;;;;;5001500;28;20022;-52
2022/10/18 11:52:28;;;;;;;9.93;4.10;;;15.00;99.90;;;;;;4988533;28;20461;-49
2022/10/18 11:55:14;;;;;;;10.98;3.60;;;15.00;99.90;;;;;;5001878;28;20374;-51
2022/10/18 11:57:51;;;;;;;;;;;15.10;99.90;;;;;;5002475;28;20496;-48
2022/10/18 12:00:32;;;;;;;;;;;15.20;99.90;;;;;;4993798;28;19916;-49
2022/10/18 12:03:01;;;;;;;10.07;3.05;;;15.20;99.90;;;;;;5000491;28;19910;-55
2022/10/18 12:05:28;;;;;;;9.52;2.63;;;15.30;99.90;;;;;;5002803;28;20026;-50
2022/10/18 12:08:15;;;;;;;9.18;3.25;;;15.20;99.90;;;;;;5002924;28;20404;-51
2022/10/18 12:10:46;;;;;;;8.25;2.65;;;15.20;99.90;;;;;;4990458;28;20026;-48
2022/10/18 12:13:17;;;;;;;11.00;3.10;;;15.20;99.90;;;;;;5003482;28;20019;-51
2022/10/18 12:15:44;;;;;;;6.03;1.95;;;15.10;99.90;;;;;;4998783;28;20061;-48
2022/10/18 12:18:15;;;;;;;4.25;2.22;;;15.20;99.90;;;;;;5001737;28;20102;-49
2022/10/18 12:20:53;;;;;;;12.85;2.42;;;15.20;99.90;;;;;;5002218;28;20022;-53
2022/10/18 12:23:27;;;;;;;5.18;2.10;;;15.20;99.90;;;;;;4988097;28;20381;-49
2022/10/18 12:26:00;;;;;;;6.50;2.03;;;15.30;99.90;;;;;;4998584;28;20137;-49
2022/10/18 12:28:37;;;;;;;14.65;2.05;;;15.30;99.90;;;;;;5001976;28;20396;-48
2022/10/18 12:31:15;;;;;;;9.13;2.35;;;15.40;99.90;;;;;;4997691;28;20457;-52
2022/10/18 12:33:46;;;;;;;11.55;1.73;;;15.40;99.90;;;;;;5001773;28;20033;-51
2022/10/18 12:36:43;;;;;;;6.75;1.98;;;15.40;99.90;;;;;;4998474;28;20030;-48
2022/10/18 12:39:16;;;;;;;11.27;2.05;;;15.40;99.90;;;;;;4998935;28;20050;-51
2022/10/18 12:41:46;;;;;;;6.65;1.73;;;15.40;99.90;;;;;;4990596;28;20117;-49
2022/10/18 12:44:29;;;;;;;7.30;1.30;;;15.40;99.90;;;;;;5004416;28;20546;-49
2022/10/18 12:46:58;;;;;;;11.77;1.58;;;15.40;99.90;;;;;;4994410;28;20069;-51
2022/10/18 12:49:36;;;;;;;13.02;1.73;;;15.40;99.90;;;;;;5003586;28;20088;-51
2022/10/18 12:52:19;;;;;;;7.90;2.03;;;15.40;99.90;;;;;;4998082;28;20026;-52